Time;durP1;ratioP1;P1;durP2;ratioP2;P2;SDS_P1;SDS_P2;PMS_P1;PMS_P2;Temp;Humidity;BMP_temperature;BMP_pressure;BME280_temperature;BME280_humidity;BME280_pressure;Samples;Min_cycle;Max_cycle;Signal;HPM_P1;HPM_P2
2023/07/21 00:00:37;;;;;;;;;5.40;5.40;;;;;24.00;48.47;98644.50;4972104;28;45579;-56
2023/07/21 00:02:56;;;;;;;;;4.00;3.00;;;;;23.93;48.38;98644.31;4971774;28;45407;-56
2023/07/21 00:05:24;;;;;;;;;9.50;8.00;;;;;23.88;48.79;98645.78;4973940;28;45566;-56
2023/07/21 00:07:50;;;;;;;;;9.75;8.00;;;;;23.86;48.22;98643.22;4971941;28;45942;-57
2023/07/21 00:10:15;;;;;;;;;10.00;6.75;;;;;23.84;48.34;98645.22;4972631;28;46584;-56
2023/07/21 00:12:46;;;;;;;;;5.50;4.00;;;;;23.80;48.16;98632.22;4974521;28;45388;-57
2023/07/21 00:15:15;;;;;;;;;5.60;5.40;;;;;23.79;48.05;98635.97;4973593;28;45552;-57
2023/07/21 00:17:41;;;;;;;;;4.40;4.40;;;;;23.75;48.61;98639.97;4973587;28;45422;-57
2023/07/21 00:20:19;;;;;;;;;4.20;3.80;;;;;23.68;48.20;98634.34;4970359;28;45522;-57
2023/07/21 00:22:45;;;;;;;;;3.40;3.00;;;;;23.63;48.57;98633.94;4969242;28;45539;-57
2023/07/21 00:25:11;;;;;;;;;4.40;4.40;;;;;23.63;49.10;98639.34;4970929;28;45455;-57
2023/07/21 00:27:42;;;;;;;;;5.00;4.25;;;;;23.64;49.06;98636.50;4972873;28;45531;-56
2023/07/21 00:30:08;;;;;;;;;4.60;4.00;;;;;23.68;49.30;98631.66;4972001;28;45714;-57
2023/07/21 00:32:39;;;;;;;;;1.80;1.80;;;;;23.72;49.01;98622.25;4973757;28;45369;-56
2023/07/21 00:35:06;;;;;;;;;4.00;4.00;;;;;23.77;49.15;98621.81;4970468;28;45363;-57
2023/07/21 00:37:32;;;;;;;;;5.00;5.00;;;;;23.80;49.03;98625.00;4973280;28;45434;-57
2023/07/21 00:39:57;;;;;;;;;6.25;4.00;;;;;23.84;49.48;98622.84;4970842;28;45628;-57
2023/07/21 00:42:23;;;;;;;;;6.75;6.00;;;;;23.84;49.26;98623.69;4973866;28;45527;-57
2023/07/21 00:44:48;;;;;;;;;4.00;4.00;;;;;23.83;48.89;98622.00;4968867;28;45395;-57
2023/07/21 00:47:14;;;;;;;;;4.50;4.50;;;;;23.83;49.28;98621.16;4971279;28;45507;-58
2023/07/21 00:49:40;;;;;;;;;6.00;4.00;;;;;23.78;49.34;98616.25;4971793;28;45468;-57
2023/07/21 00:52:09;;;;;;;;;3.00;3.00;;;;;23.76;49.31;98615.56;4978665;28;45545;-57
2023/07/21 00:54:35;;;;;;;;;5.00;4.60;;;;;23.75;49.41;98611.19;4971055;28;45577;-57
2023/07/21 00:57:01;;;;;;;;;5.00;5.00;;;;;23.75;49.88;98623.81;4974276;28;45308;-57
2023/07/21 00:59:27;;;;;;;;;5.00;5.00;;;;;23.72;49.95;98606.13;4975183;28;45804;-57
2023/07/21 01:01:52;;;;;;;;;4.00;4.00;;;;;23.72;49.64;98608.81;4977769;28;45760;-57
2023/07/21 01:04:18;;;;;;;;;4.00;4.00;;;;;23.73;49.77;98612.34;4975458;28;46037;-58
2023/07/21 01:06:45;;;;;;;;;6.80;5.60;;;;;23.71;49.97;98604.41;4977029;28;45450;-58
2023/07/21 01:09:12;;;;;;;;;6.00;5.00;;;;;23.68;50.26;98602.03;4974067;28;46397;-58
2023/07/21 01:11:39;;;;;;;;;3.40;3.40;;;;;23.64;50.31;98601.50;4976838;28;45360;-57
2023/07/21 01:14:07;;;;;;;;;5.00;5.00;;;;;23.65;50.15;98605.03;4973412;28;45407;-57
2023/07/21 01:16:37;;;;;;;;;5.25;5.25;;;;;23.63;50.51;98599.81;4975380;28;45520;-58
2023/07/21 01:19:08;;;;;;;;;4.80;4.60;;;;;23.61;50.37;98606.38;4971255;28;45752;-58
2023/07/21 01:22:06;;;;;;;;;4.00;4.00;;;;;23.57;49.72;98599.59;4976614;28;45466;-57
2023/07/21 01:24:48;;;;;;;;;5.00;5.00;;;;;23.50;50.40;98604.72;4970186;28;45486;-58
2023/07/21 01:27:15;;;;;;;;;6.80;6.00;;;;;23.41;50.86;98600.28;4971163;28;45394;-57
2023/07/21 01:29:43;;;;;;;;;5.20;5.20;;;;;23.32;51.08;98602.03;4970193;28;45586;-56
2023/07/21 01:32:11;;;;;;;;;6.40;6.00;;;;;23.24;51.16;98595.75;4977720;28;45328;-58
2023/07/21 01:34:38;;;;;;;;;6.00;5.00;;;;;23.16;51.30;98595.66;4971569;28;45578;-57
2023/07/21 01:37:07;;;;;;;;;8.00;7.00;;;;;23.13;51.11;98585.22;4977041;28;45482;-58
2023/07/21 01:39:35;;;;;;;;;7.20;5.60;;;;;;;;4972404;28;47210;-58
2023/07/21 01:42:00;;;;;;;;;8.80;7.60;;;;;23.04;51.49;98587.00;4977310;28;45504;-57
2023/07/21 01:44:26;;;;;;;;;5.00;4.50;;;;;23.02;51.81;98590.84;4974133;28;45340;-57
2023/07/21 01:46:54;;;;;;;;;4.50;4.00;;;;;22.97;51.52;98588.59;4977290;28;45333;-57
2023/07/21 01:49:20;;;;;;;;;4.00;4.00;;;;;22.95;51.73;98591.47;4975410;28;45425;-57
2023/07/21 01:51:52;;;;;;;;;5.00;5.00;;;;;22.94;52.35;98589.78;4972179;28;45920;-57
2023/07/21 01:54:25;;;;;;;;;4.40;4.40;;;;;22.92;52.20;98589.06;4969258;28;45577;-57
2023/07/21 01:56:59;;;;;;;;;7.50;7.50;;;;;22.88;52.34;98589.53;4976883;28;45504;-57
2023/07/21 01:59:26;;;;;;;;;6.60;5.40;;;;;22.83;52.33;98583.75;4974110;28;45526;-58
2023/07/21 02:01:54;;;;;;;;;5.60;4.80;;;;;22.82;52.67;98585.59;4977069;28;45793;-57
2023/07/21 02:04:20;;;;;;;;;6.40;5.80;;;;;22.83;52.65;98589.97;4970290;28;45560;-57
2023/07/21 02:06:47;;;;;;;;;7.25;5.75;;;;;22.86;52.82;98589.66;4971019;28;45533;-57
2023/07/21 02:09:12;;;;;;;;;5.00;5.00;;;;;22.88;52.85;98584.16;4969718;28;46263;-58
2023/07/21 02:11:38;;;;;;;;;5.50;5.50;;;;;22.92;53.27;98590.91;4971181;28;45787;-57
2023/07/21 02:14:04;;;;;;;;;5.00;5.00;;;;;22.95;53.30;98582.56;4974943;28;45494;-57
2023/07/21 02:16:29;;;;;;;;;5.50;4.50;;;;;22.91;53.19;98584.69;4976823;28;45334;-58
2023/07/21 02:18:55;;;;;;;;;5.50;5.50;;;;;22.88;52.89;98585.00;4974871;28;46194;-58
2023/07/21 02:21:20;;;;;;;;;5.25;5.25;;;;;22.87;53.16;98590.50;4976447;28;45389;-58
2023/07/21 02:23:46;;;;;;;;;7.50;6.25;;;;;22.82;52.70;98585.59;4974879;28;45603;-57
2023/07/21 02:26:11;;;;;;;;;6.00;6.00;;;;;22.79;53.37;98582.38;4971317;28;45319;-57
2023/07/21 02:28:36;;;;;;;;;5.50;5.50;;;;;22.75;53.04;98580.97;4972623;28;46690;-57
2023/07/21 02:31:04;;;;;;;;;6.00;6.00;;;;;22.71;52.88;98583.09;4976277;28;45502;-57
2023/07/21 02:33:30;;;;;;;;;7.20;6.00;;;;;22.69;53.31;98585.09;4974015;28;45474;-57
2023/07/21 02:35:57;;;;;;;;;6.25;5.25;;;;;22.63;53.59;98589.22;4976287;28;45370;-57
2023/07/21 02:38:22;;;;;;;;;4.00;4.00;;;;;22.57;53.57;98580.91;4974576;28;46198;-56
2023/07/21 02:40:48;;;;;;;;;6.25;5.25;;;;;22.53;53.94;98580.38;4975152;28;45289;-56
2023/07/21 02:43:13;;;;;;;;;9.50;6.50;;;;;22.50;53.97;98574.44;4975075;28;45454;-56
2023/07/21 02:45:39;;;;;;;;;6.00;5.50;;;;;22.48;54.17;98573.75;4976156;28;45292;-57
2023/07/21 02:48:08;;;;;;;;;6.00;5.00;;;;;22.48;53.92;98574.59;4974222;28;46501;-56
2023/07/21 02:50:34;;;;;;;;;5.00;5.00;;;;;22.49;53.83;98572.75;4975443;28;45508;-55
2023/07/21 02:52:59;;;;;;;;;4.40;4.40;;;;;22.47;53.83;98572.06;4973698;28;45410;-56
2023/07/21 02:55:25;;;;;;;;;6.75;6.00;;;;;22.44;53.92;98573.22;4971127;28;45555;-57
2023/07/21 02:57:52;;;;;;;;;5.25;5.00;;;;;22.41;54.23;98572.66;4974908;28;46661;-54
2023/07/21 03:00:17;;;;;;;;;5.40;5.40;;;;;22.39;54.01;98575.50;4973624;28;45476;-58
2023/07/21 03:02:43;;;;;;;;;7.75;5.50;;;;;22.37;54.24;98573.94;4976085;28;45363;-57
2023/07/21 03:05:09;;;;;;;;;5.00;5.00;;;;;22.34;54.20;98575.09;4973536;28;45366;-58
2023/07/21 03:07:34;;;;;;;;;7.00;6.00;;;;;22.34;54.46;98571.56;4975789;28;45485;-58
2023/07/21 03:10:00;;;;;;;;;6.50;6.50;;;;;22.32;54.37;98573.53;4966238;28;45295;-58
2023/07/21 03:12:25;;;;;;;;;5.25;5.25;;;;;22.27;54.27;98582.91;4976118;28;45376;-57
2023/07/21 03:14:50;;;;;;;;;5.00;5.00;;;;;22.21;54.54;98585.34;4968780;28;45584;-58
2023/07/21 03:17:16;;;;;;;;;1.00;1.00;;;;;22.14;54.97;98584.22;4976105;28;46253;-58
2023/07/21 03:19:41;;;;;;;;;6.00;6.00;;;;;22.06;54.96;98589.50;4969697;28;45364;-55
2023/07/21 03:22:07;;;;;;;;;5.25;4.75;;;;;21.97;54.39;98584.97;4974789;28;45331;-56
2023/07/21 03:24:34;;;;;;;;;7.50;4.25;;;;;21.90;55.04;98593.63;4970560;28;45516;-56
2023/07/21 03:27:00;;;;;;;;;5.80;5.80;;;;;21.83;55.97;98587.13;4975661;28;47030;-56
2023/07/21 03:29:25;;;;;;;;;6.50;6.50;;;;;21.76;56.15;98590.53;4969170;28;45517;-56
2023/07/21 03:31:51;;;;;;;;;8.50;7.00;;;;;21.74;55.46;98588.00;4975703;28;45418;-56
2023/07/21 03:34:16;;;;;;;;;5.75;5.00;;;;;21.71;55.82;98593.66;4969286;28;45572;-57
2023/07/21 03:36:41;;;;;;;;;6.25;6.25;;;;;21.70;55.87;98588.44;4975402;28;45643;-56
2023/07/21 03:39:07;;;;;;;;;6.75;5.75;;;;;21.69;55.81;98584.91;4969459;28;45483;-56
2023/07/21 03:41:32;;;;;;;;;7.25;5.50;;;;;21.64;56.79;98589.84;4974353;28;45406;-56
2023/07/21 03:43:58;;;;;;;;;5.25;5.00;;;;;21.57;56.90;98594.97;4972239;28;45589;-56
2023/07/21 03:46:23;;;;;;;;;6.75;5.25;;;;;21.50;56.54;98593.81;4975344;28;46912;-56
2023/07/21 03:48:50;;;;;;;;;7.50;6.00;;;;;21.45;56.82;98598.75;4970121;28;45849;-56
2023/07/21 03:51:15;;;;;;;;;5.60;5.60;;;;;21.41;56.76;98594.69;4971207;28;45370;-55
2023/07/21 03:53:41;;;;;;;;;5.25;5.25;;;;;21.36;56.42;98602.31;4971852;28;45512;-55
2023/07/21 03:56:06;;;;;;;;;3.00;3.00;;;;;21.29;56.89;98598.50;4972681;28;46118;-55
2023/07/21 03:58:32;;;;;;;;;5.50;5.25;;;;;21.24;56.52;98600.78;4972186;28;45383;-57
2023/07/21 04:00:59;;;;;;;;;5.75;4.25;;;;;21.16;57.47;98596.06;4973666;28;46014;-55
2023/07/21 04:03:24;;;;;;;;;6.75;6.75;;;;;21.07;56.35;98601.44;4972577;28;45625;-55
2023/07/21 04:05:51;;;;;;;;;4.75;4.75;;;;;20.99;57.25;98595.91;4974456;28;45466;-56
2023/07/21 04:08:16;;;;;;;;;6.00;5.60;;;;;20.94;57.38;98607.06;4973158;28;45426;-54
2023/07/21 04:10:42;;;;;;;;;5.00;5.00;;;;;20.89;57.59;98601.28;4967297;28;45371;-55
2023/07/21 04:13:08;;;;;;;;;7.50;5.00;;;;;20.87;57.66;98605.94;4972191;28;45379;-55
2023/07/21 04:15:33;;;;;;;;;5.00;5.00;;;;;20.88;57.43;98597.75;4968631;28;45404;-56
2023/07/21 04:17:59;;;;;;;;;6.00;6.00;;;;;20.92;57.63;98600.16;4973904;28;45360;-56
2023/07/21 04:20:24;;;;;;;;;4.75;4.75;;;;;20.91;57.25;98607.34;4970042;28;45448;-55
2023/07/21 04:22:51;;;;;;;;;4.00;4.00;;;;;20.94;57.23;98607.06;4973778;28;45300;-57
2023/07/21 04:25:18;;;;;;;;;4.80;4.40;;;;;20.99;57.12;98604.81;4970040;28;45565;-57
2023/07/21 04:27:47;;;;;;;;;6.00;5.00;;;;;21.07;57.02;98596.94;4973857;28;45406;-55
2023/07/21 04:30:13;;;;;;;;;4.00;4.00;;;;;21.13;57.24;98590.97;4968927;28;45411;-57
2023/07/21 04:32:38;;;;;;;;;3.75;3.25;;;;;21.19;57.61;98592.25;4973864;28;45574;-56
2023/07/21 04:35:08;;;;;;;;;6.50;5.25;;;;;21.27;56.87;98596.97;4967954;28;45423;-56
2023/07/21 04:37:34;;;;;;;;;4.80;4.80;;;;;21.32;56.32;98589.31;4973260;28;45488;-57
2023/07/21 04:39:59;;;;;;;;;4.00;4.00;;;;;21.37;56.07;98598.66;4968465;28;45477;-56
2023/07/21 04:42:24;;;;;;;;;5.00;5.00;;;;;21.40;55.43;98598.38;4974207;28;45478;-56
2023/07/21 04:44:50;;;;;;;;;6.00;6.00;;;;;21.41;55.29;98599.22;4971383;28;46317;-56
2023/07/21 04:47:15;;;;;;;;;4.00;4.00;;;;;21.41;55.07;98602.75;4974377;28;45454;-57
2023/07/21 04:49:40;;;;;;;;;4.00;4.00;;;;;21.41;55.17;98600.06;4972456;28;45451;-57
2023/07/21 04:52:06;;;;;;;;;5.25;5.25;;;;;21.43;54.65;98605.28;4969223;28;45423;-57
2023/07/21 04:54:31;;;;;;;;;4.25;4.25;;;;;21.41;54.92;98608.09;4970628;28;45474;-56
2023/07/21 04:56:56;;;;;;;;;3.25;3.25;;;;;21.41;55.11;98616.16;4972155;28;45431;-56
2023/07/21 04:59:22;;;;;;;;;2.50;2.00;;;;;21.43;54.82;98624.91;4972080;28;45415;-54
2023/07/21 05:01:48;;;;;;;;;5.75;4.75;;;;;21.44;54.62;98640.00;4973283;28;45406;-55
2023/07/21 05:04:19;;;;;;;;;3.00;3.00;;;;;21.45;55.05;98641.69;4967652;28;47954;-54
2023/07/21 05:06:46;;;;;;;;;3.80;3.80;;;;;21.50;54.63;98643.94;4969579;28;45442;-54
2023/07/21 05:09:13;;;;;;;;;5.60;4.80;;;;;21.57;54.68;98648.63;4969168;28;45422;-53
2023/07/21 05:11:38;;;;;;;;;3.00;3.00;;;;;21.54;54.76;98659.63;4970083;28;45556;-54
2023/07/21 05:14:04;;;;;;;;;3.50;3.50;;;;;21.46;54.59;98661.31;4968228;28;46241;-55
2023/07/21 05:16:30;;;;;;;;;4.00;4.00;;;;;21.37;55.95;98662.16;4973320;28;45487;-55
2023/07/21 05:18:55;;;;;;;;;3.20;3.20;;;;;21.24;54.80;98651.72;4972827;28;45355;-55
2023/07/21 05:21:21;;;;;;;;;5.25;4.00;;;;;21.14;55.49;98657.00;4958914;28;45597;-55
2023/07/21 05:23:47;;;;;;;;;4.00;3.50;;;;;21.10;55.89;98662.81;4961627;28;46422;-55
2023/07/21 05:26:12;;;;;;;;;5.00;4.00;;;;;21.05;56.10;98663.22;4967964;28;45697;-51
2023/07/21 05:28:38;;;;;;;;;5.25;4.25;;;;;21.04;56.31;98666.03;4966698;28;45574;-52
2023/07/21 05:31:03;;;;;;;;;4.25;4.00;;;;;21.10;57.14;98660.13;4966870;28;45532;-55
2023/07/21 05:33:29;;;;;;;;;5.75;3.50;;;;;21.13;56.24;98668.72;4967654;28;45550;-56
2023/07/21 05:36:07;;;;;;;;;5.75;5.50;;;;;21.18;55.79;98668.31;4968607;28;45811;-55
2023/07/21 05:38:34;;;;;;;;;6.00;5.00;;;;;21.23;57.26;98671.47;4967278;28;45450;-55
2023/07/21 05:40:59;;;;;;;;;4.50;4.50;;;;;21.31;56.45;98671.59;4969442;28;45411;-54
2023/07/21 05:43:25;;;;;;;;;4.00;4.00;;;;;21.37;57.00;98673.72;4967737;28;46237;-56
2023/07/21 05:45:50;;;;;;;;;4.75;4.75;;;;;21.42;57.39;98673.31;4970724;28;45456;-54
2023/07/21 05:48:16;;;;;;;;;7.00;6.00;;;;;21.47;58.44;98681.78;4972471;28;45363;-54
2023/07/21 05:50:41;;;;;;;;;4.00;4.00;;;;;21.44;58.01;98679.41;4971246;28;45547;-53
2023/07/21 05:53:07;;;;;;;;;6.50;6.00;;;;;21.41;58.15;98669.78;4970463;28;45487;-54
2023/07/21 05:55:32;;;;;;;;;6.00;6.00;;;;;21.46;58.91;98674.72;4969122;28;45469;-53
2023/07/21 05:57:58;;;;;;;;;8.00;6.75;;;;;21.54;58.71;98681.06;4972187;28;45981;-54
2023/07/21 06:00:24;;;;;;;;;4.50;4.50;;;;;21.55;58.89;98669.38;4972173;28;45465;-56
2023/07/21 06:02:51;;;;;;;;;9.60;7.40;;;;;21.56;59.36;98679.09;4972635;28;45571;-55
2023/07/21 06:05:16;;;;;;;;;6.50;6.50;;;;;21.55;59.41;98679.25;4972675;28;45420;-53
2023/07/21 06:07:43;;;;;;;;;4.00;4.00;;;;;21.50;58.55;98681.50;4973007;28;45487;-55
2023/07/21 06:10:12;;;;;;;;;5.40;4.40;;;;;21.44;58.71;98680.25;4971665;28;45379;-56
2023/07/21 06:12:38;;;;;;;;;6.40;6.40;;;;;21.44;58.84;98688.28;4973611;28;45883;-53
2023/07/21 06:15:06;;;;;;;;;8.40;5.80;;;;;21.46;59.24;98686.28;4969949;28;45485;-51
2023/07/21 06:17:31;;;;;;;;;6.40;6.20;;;;;21.56;59.45;98684.47;4964554;28;45704;-53
2023/07/21 06:19:57;;;;;;;;;8.75;8.75;;;;;21.64;59.83;98681.06;4965655;28;45438;-54
2023/07/21 06:22:22;;;;;;;;;7.00;7.00;;;;;21.67;59.66;98685.31;4972567;28;45699;-53
2023/07/21 06:24:47;;;;;;;;;6.25;5.75;;;;;21.67;59.22;98679.94;4965919;28;45358;-50
2023/07/21 06:27:13;;;;;;;;;4.75;4.00;;;;;21.71;58.63;98684.03;4973203;28;45489;-53
2023/07/21 06:29:38;;;;;;;;;5.75;5.75;;;;;21.74;58.41;98683.75;4966293;28;45587;-54
2023/07/21 06:32:04;;;;;;;;;4.00;3.50;;;;;21.76;58.01;98682.63;4972949;28;46188;-54
2023/07/21 06:34:29;;;;;;;;;3.75;3.75;;;;;21.82;58.35;98695.47;4965373;28;45447;-52
2023/07/21 06:36:55;;;;;;;;;8.25;6.00;;;;;21.87;58.46;98695.88;4971336;28;45478;-54
2023/07/21 06:39:22;;;;;;;;;7.75;6.00;;;;;21.88;58.32;98689.53;4965752;28;45416;-51
2023/07/21 06:41:48;;;;;;;;;6.40;6.40;;;;;21.90;58.72;98686.72;4972310;28;46541;-51
2023/07/21 06:44:14;;;;;;;;;6.25;5.50;;;;;21.92;59.32;98690.94;4966490;28;45867;-51
2023/07/21 06:46:44;;;;;;;;;7.20;6.40;;;;;21.93;59.77;98689.97;4973668;28;45474;-54
2023/07/21 06:49:10;;;;;;;;;7.25;5.50;;;;;21.92;60.36;98693.63;4967811;28;45478;-50
2023/07/21 06:51:35;;;;;;;;;7.00;7.00;;;;;21.93;60.24;98691.78;4969428;28;46239;-53
2023/07/21 06:54:03;;;;;;;;;7.50;6.25;;;;;21.98;59.37;98691.34;4968776;28;45442;-52
2023/07/21 06:56:29;;;;;;;;;9.80;8.00;;;;;22.01;58.96;98685.72;4970217;28;45541;-51
2023/07/21 06:58:55;;;;;;;;;8.00;7.50;;;;;22.06;59.10;98687.00;4969680;28;45494;-52
2023/07/21 07:01:21;;;;;;;;;8.75;7.75;;;;;22.14;58.71;98689.78;4972307;28;46809;-53
2023/07/21 07:03:46;;;;;;;;;10.00;7.25;;;;;22.19;58.61;98694.72;4970058;28;45475;-53
2023/07/21 07:06:11;;;;;;;;;8.75;7.00;;;;;22.21;58.89;98698.13;4962443;28;45849;-51
2023/07/21 07:08:37;;;;;;;;;7.00;5.00;;;;;22.26;58.45;98699.38;4969788;28;45495;-53
2023/07/21 07:11:02;;;;;;;;;10.00;9.00;;;;;22.34;58.21;98706.69;4965106;28;45516;-50
2023/07/21 07:13:28;;;;;;;;;8.75;7.25;;;;;22.41;57.65;98698.91;4968798;28;45552;-55
2023/07/21 07:15:54;;;;;;;;;8.60;8.60;;;;;22.52;57.96;98698.72;4955608;28;45431;-54
2023/07/21 07:18:20;;;;;;;;;6.00;6.00;;;;;22.64;57.33;98701.06;4968119;28;45459;-51
2023/07/21 07:20:53;;;;;;;;;6.25;6.25;;;;;22.80;56.79;98697.78;4967970;28;45714;-54
2023/07/21 07:23:19;;;;;;;;;11.80;10.20;;;;;22.93;56.46;98698.31;4968439;28;45470;-51
2023/07/21 07:25:47;;;;;;;;;8.60;7.40;;;;;23.02;56.25;98696.53;4971846;28;45865;-51
2023/07/21 07:28:12;;;;;;;;;8.75;8.75;;;;;;;;4968337;28;45412;-52
2023/07/21 07:30:38;;;;;;;;;9.25;9.00;;;;;23.14;56.90;98689.09;4967407;28;45473;-54
2023/07/21 07:33:04;;;;;;;;;7.60;6.60;;;;;23.15;56.42;98685.41;4969646;28;45574;-54
2023/07/21 07:35:30;;;;;;;;;11.25;9.50;;;;;23.10;56.32;98685.91;4967025;28;45521;-52
2023/07/21 07:37:55;;;;;;;;;8.25;8.25;;;;;23.08;56.79;98684.34;4968974;28;45391;-50
2023/07/21 07:40:21;;;;;;;;;7.00;7.00;;;;;23.11;56.66;98681.38;4964457;28;46025;-51
2023/07/21 07:42:47;;;;;;;;;10.60;7.60;;;;;23.12;56.70;98691.13;4967386;28;45545;-52
2023/07/21 07:45:12;;;;;;;;;7.75;7.75;;;;;23.13;56.14;98690.94;4968454;28;45466;-52
2023/07/21 07:47:38;;;;;;;;;8.00;7.75;;;;;23.17;56.20;98691.50;4971352;28;45475;-52
2023/07/21 07:50:08;;;;;;;;;10.75;10.75;;;;;23.21;56.95;98693.75;4967459;28;46047;-51
2023/07/21 07:52:34;;;;;;;;;10.40;8.40;;;;;23.21;56.46;98690.19;4972529;28;45466;-52
2023/07/21 07:55:03;;;;;;;;;8.25;8.25;;;;;23.18;57.30;98688.66;4969399;28;45457;-52
2023/07/21 07:57:28;;;;;;;;;10.60;9.40;;;;;23.13;57.48;98688.25;4972708;28;45731;-54
2023/07/21 07:59:55;;;;;;;;;7.50;7.50;;;;;23.13;57.39;98688.25;4968702;28;47312;-49
2023/07/21 08:02:20;;;;;;;;;12.00;7.80;;;;;23.18;56.90;98696.72;4970152;28;45491;-53
2023/07/21 08:04:46;;;;;;;;;8.75;8.25;;;;;23.24;56.92;98708.72;4966565;28;45427;-53
2023/07/21 08:07:11;;;;;;;;;9.50;8.00;;;;;23.28;56.43;98694.00;4970596;28;45592;-53
2023/07/21 08:09:37;;;;;;;;;8.25;8.25;;;;;23.31;56.37;98699.88;4961736;28;46315;-50
2023/07/21 08:12:03;;;;;;;;;8.00;8.00;;;;;23.37;56.54;98687.69;4969927;28;45440;-54
2023/07/21 08:14:28;;;;;;;;;9.80;8.00;;;;;23.43;56.11;98688.94;4962729;28;45649;-52
2023/07/21 08:16:53;;;;;;;;;8.00;7.00;;;;;23.50;56.00;98687.28;4969405;28;45505;-52
2023/07/21 08:19:19;;;;;;;;;8.00;8.00;;;;;23.58;55.95;98685.56;4965037;28;45755;-52
2023/07/21 08:21:47;;;;;;;;;6.50;5.00;;;;;23.62;55.47;98688.81;4969921;28;45442;-52
2023/07/21 08:24:14;;;;;;;;;6.80;6.80;;;;;23.70;55.21;98683.47;4964594;28;45502;-52
2023/07/21 08:26:40;;;;;;;;;7.40;6.60;;;;;23.76;53.55;98684.72;4970343;28;45394;-53
2023/07/21 08:29:07;;;;;;;;;6.25;5.75;;;;;23.79;53.05;98681.72;4964740;28;45529;-53
2023/07/21 08:31:32;;;;;;;;;7.00;7.00;;;;;23.86;53.57;98680.94;4970125;28;45407;-54
2023/07/21 08:33:58;;;;;;;;;8.25;6.00;;;;;23.98;53.18;98679.66;4964847;28;45630;-58
2023/07/21 08:36:23;;;;;;;;;8.75;7.25;;;;;24.07;53.24;98682.44;4970044;28;45671;-59
2023/07/21 08:38:51;;;;;;;;;6.25;6.25;;;;;24.13;53.27;98681.81;4963890;28;45533;-54
2023/07/21 08:41:19;;;;;;;;;7.40;6.00;;;;;24.19;53.46;98681.16;4967223;28;45508;-56
2023/07/21 08:43:47;;;;;;;;;8.40;8.40;;;;;24.21;54.10;98680.00;4962395;28;45510;-54
2023/07/21 08:46:12;;;;;;;;;7.80;7.80;;;;;24.26;53.79;98687.66;4970322;28;45917;-54
2023/07/21 08:48:40;;;;;;;;;6.50;6.50;;;;;24.25;53.68;98686.81;4965708;28;46379;-53
2023/07/21 08:51:06;;;;;;;;;7.20;7.20;;;;;24.20;53.23;98685.53;4966777;28;45587;-53
2023/07/21 08:53:32;;;;;;;;;7.25;6.50;;;;;24.17;53.30;98688.56;4968089;28;45884;-56
2023/07/21 08:55:59;;;;;;;;;5.75;5.75;;;;;24.16;53.25;98687.72;4970259;28;45542;-54
2023/07/21 08:58:25;;;;;;;;;9.40;7.80;;;;;24.15;52.73;98682.47;4966791;28;45482;-55
2023/07/21 09:00:52;;;;;;;;;10.00;8.40;;;;;24.18;52.63;98680.31;4969788;28;45495;-55
2023/07/21 09:03:29;;;;;;;;;7.40;6.60;;;;;24.22;52.42;98687.09;4967587;28;45386;-56
2023/07/21 09:05:57;;;;;;;;;6.60;6.00;;;;;24.25;51.90;98680.56;4969744;28;45500;-54
2023/07/21 09:08:33;;;;;;;;;6.00;6.00;;;;;24.27;51.54;98695.56;4967783;28;45504;-53
2023/07/21 09:11:01;;;;;;;;;8.00;6.60;;;;;24.27;51.44;98694.72;4962664;28;45446;-51
2023/07/21 09:13:26;;;;;;;;;6.40;6.40;;;;;24.27;51.04;98692.03;4968860;28;45508;-54
2023/07/21 09:16:00;;;;;;;;;3.00;2.00;;;;;24.32;50.72;98684.31;4970389;28;45521;-55
2023/07/21 09:18:29;;;;;;;;;6.60;6.60;;;;;24.40;51.36;98687.06;4968580;28;46409;-54
2023/07/21 09:20:56;;;;;;;;;7.60;5.80;;;;;24.53;51.15;98690.16;4971600;28;45495;-55
2023/07/21 09:23:22;;;;;;;;;5.40;5.40;;;;;24.66;50.85;98684.31;4970936;28;45516;-55
2023/07/21 09:25:59;;;;;;;;;5.00;5.00;;;;;24.80;50.45;98682.91;4983633;28;45476;-54
2023/07/21 09:28:37;;;;;;;;;9.80;8.00;;;;;24.89;50.56;98677.34;4969979;28;46441;-54
2023/07/21 09:31:02;;;;;;;;;5.60;5.20;;;;;24.96;49.60;98686.53;4971295;28;45447;-54
2023/07/21 09:33:28;;;;;;;;;5.50;5.25;;;;;25.01;50.03;98677.94;4970503;28;45766;-55
2023/07/21 09:36:07;;;;;;;;;4.50;4.50;;;;;25.08;49.66;98681.66;4970224;28;45620;-54
2023/07/21 09:38:35;;;;;;;;;4.40;4.40;;;;;25.08;48.39;98676.28;4969115;28;46330;-54
2023/07/21 09:41:02;;;;;;;;;4.20;4.20;;;;;25.10;48.31;98676.13;4973270;28;45854;-55
2023/07/21 09:43:28;;;;;;;;;4.20;3.20;;;;;25.14;48.53;98670.19;4970424;28;45579;-54
2023/07/21 09:45:54;;;;;;;;;3.60;3.60;;;;;25.20;48.59;98676.81;4971908;28;45454;-53
2023/07/21 09:48:21;;;;;;;;;2.80;2.80;;;;;25.27;47.55;98670.59;4971414;28;45454;-55
2023/07/21 09:50:47;;;;;;;;;5.00;2.80;;;;;25.35;45.85;98661.66;4969724;28;45518;-54
2023/07/21 09:53:20;;;;;;;;;2.20;2.20;;;;;25.48;43.50;98648.50;4969743;28;45560;-52
2023/07/21 09:55:48;;;;;;;;;1.80;1.80;;;;;25.65;42.39;98662.88;4971460;28;45506;-54
2023/07/21 09:58:16;;;;;;;;;2.80;2.20;;;;;25.81;40.77;98654.78;4970671;28;45634;-56
2023/07/21 10:00:42;;;;;;;;;2.40;2.40;;;;;25.94;40.88;98659.69;4971370;28;45483;-54
2023/07/21 10:03:08;;;;;;;;;2.25;2.25;;;;;26.11;40.46;98658.66;4970686;28;45664;-54
2023/07/21 10:05:36;;;;;;;;;2.20;2.20;;;;;26.24;38.29;98666.25;4971210;28;45595;-52
2023/07/21 10:08:03;;;;;;;;;4.00;2.80;;;;;26.33;38.97;98655.25;4971183;28;46333;-55
2023/07/21 10:10:29;;;;;;;;;0.80;0.80;;;;;26.42;37.07;98651.53;4967329;28;45503;-55
2023/07/21 10:12:55;;;;;;;;;2.00;2.00;;;;;26.51;38.38;98670.41;4971664;28;45504;-53
2023/07/21 10:15:27;;;;;;;;;3.20;2.40;;;;;26.60;37.71;98662.13;4967620;28;45439;-52
2023/07/21 10:17:56;;;;;;;;;2.80;1.00;;;;;26.63;37.41;98655.53;4971795;28;45604;-52
2023/07/21 10:20:56;;;;;;;;;4.80;2.80;;;;;26.64;36.77;98674.28;4966153;28;45438;-53
2023/07/21 10:23:38;;;;;;;;;3.00;3.00;;;;;26.67;37.81;98667.66;4969648;28;45568;-49
2023/07/21 10:26:08;;;;;;;;;2.00;2.00;;;;;26.70;37.69;98667.31;4970851;28;45484;-54
2023/07/21 10:28:34;;;;;;;;;1.80;0.80;;;;;26.69;37.35;98665.63;4967891;28;46752;-54
2023/07/21 10:31:21;;;;;;;;;2.00;2.00;;;;;26.70;38.63;98668.16;4970758;28;45490;-55
2023/07/21 10:34:05;;;;;;;;;3.00;3.00;;;;;26.72;38.28;98701.28;4968296;28;45451;-56
2023/07/21 10:37:04;;;;;;;;;3.20;3.20;;;;;26.73;38.85;98666.97;4965710;28;45419;-55
2023/07/21 10:39:37;;;;;;;;;6.60;5.00;;;;;26.73;38.87;98672.38;4968029;28;45526;-49
2023/07/21 10:42:05;;;;;;;;;4.20;4.20;;;;;26.76;39.15;98653.94;4972019;28;45466;-52
2023/07/21 10:44:39;;;;;;;;;3.40;3.40;;;;;26.80;38.16;98656.31;4962154;28;45531;-53
2023/07/21 10:47:12;;;;;;;;;2.80;2.80;;;;;26.82;38.57;98679.44;4968789;28;45580;-52
2023/07/21 10:49:38;;;;;;;;;1.40;1.40;;;;;26.85;38.39;98667.41;4969327;28;45652;-57
2023/07/21 10:52:04;;;;;;;;;3.50;3.50;;;;;26.88;38.98;98678.75;4971011;28;45616;-58
2023/07/21 10:54:30;;;;;;;;;3.75;3.75;;;;;27.01;38.91;98659.25;4967564;28;45570;-59
2023/07/21 10:56:58;;;;;;;;;3.00;3.00;;;;;27.13;38.45;98663.28;4970575;28;45644;-59
2023/07/21 10:59:24;;;;;;;;;1.80;1.60;;;;;27.23;37.54;98671.16;4968103;28;46296;-69
2023/07/21 11:01:51;;;;;;;;;3.00;3.00;;;;;27.27;38.81;98659.81;4972469;28;45422;-69
2023/07/21 11:04:18;;;;;;;;;4.20;4.20;;;;;27.34;39.37;98659.91;4966287;28;45434;-69
2023/07/21 11:06:50;;;;;;;;;5.80;4.80;;;;;27.39;39.17;98666.50;4968731;28;45446;-70
2023/07/21 11:09:17;;;;;;;;;3.60;3.60;;;;;27.41;39.68;98656.31;4970495;28;45538;-70
2023/07/21 11:11:45;;;;;;;;;4.20;4.20;;;;;27.44;39.39;98658.69;4971981;28;45473;-71
2023/07/21 11:14:26;;;;;;;;;4.40;3.00;;;;;27.45;38.85;98678.47;4965332;28;45570;-71
2023/07/21 11:16:52;;;;;;;;;2.60;2.60;;;;;27.49;38.84;98654.56;4972399;28;45519;-70
2023/07/21 11:19:19;;;;;;;;;2.60;2.60;;;;;27.55;39.18;98651.16;4970252;28;45438;-70
2023/07/21 11:21:46;;;;;;;;;6.80;5.60;;;;;27.60;38.92;98662.31;4963553;28;45510;-70
2023/07/21 11:24:18;;;;;;;;;1.80;1.80;;;;;27.66;38.72;98659.72;4960618;28;45501;-71
2023/07/21 11:26:45;;;;;;;;;4.00;3.40;;;;;27.68;38.63;98652.25;4966914;28;45400;-70
2023/07/21 11:29:10;;;;;;;;;2.00;2.00;;;;;27.69;38.69;98661.22;4969317;28;46440;-72
2023/07/21 11:31:37;;;;;;;;;4.00;4.00;;;;;27.72;38.57;98650.88;4971774;28;45528;-71
2023/07/21 11:34:03;;;;;;;;;5.00;3.80;;;;;27.77;38.80;98643.03;4964827;28;45471;-69